sensor_id;sensor_type;location;lat;lon;timestamp;P1;durP1;ratioP1;P2;durP2;ratioP2
8297;SDS011;4187;42.778;23.242;2023-12-22T00:01:46;11.30;;;9.17;;
8297;SDS011;4187;42.778;23.242;2023-12-22T00:04:13;16.37;;;12.60;;
8297;SDS011;4187;42.778;23.242;2023-12-22T00:06:40;23.13;;;14.93;;
8297;SDS011;4187;42.778;23.242;2023-12-22T00:09:07;21.43;;;14.47;;
8297;SDS011;4187;42.778;23.242;2023-12-22T00:11:35;25.10;;;15.70;;
8297;SDS011;4187;42.778;23.242;2023-12-22T00:14:02;21.07;;;15.73;;
8297;SDS011;4187;42.778;23.242;2023-12-22T00:16:28;22.27;;;15.13;;
8297;SDS011;4187;42.778;23.242;2023-12-22T00:18:55;22.03;;;15.00;;
8297;SDS011;4187;42.778;23.242;2023-12-22T00:21:22;26.63;;;16.40;;
8297;SDS011;4187;42.778;23.242;2023-12-22T00:23:49;20.93;;;13.70;;
8297;SDS011;4187;42.778;23.242;2023-12-22T00:26:15;18.60;;;13.07;;
8297;SDS011;4187;42.778;23.242;2023-12-22T00:28:43;24.57;;;16.03;;
8297;SDS011;4187;42.778;23.242;2023-12-22T00:31:10;26.57;;;16.40;;
8297;SDS011;4187;42.778;23.242;2023-12-22T00:33:37;30.00;;;19.33;;
8297;SDS011;4187;42.778;23.242;2023-12-22T00:36:04;31.17;;;18.57;;
8297;SDS011;4187;42.778;23.242;2023-12-22T00:38:30;22.27;;;16.37;;
8297;SDS011;4187;42.778;23.242;2023-12-22T00:40:57;22.83;;;17.27;;
8297;SDS011;4187;42.778;23.242;2023-12-22T00:43:23;27.80;;;16.70;;
8297;SDS011;4187;42.778;23.242;2023-12-22T00:45:51;28.20;;;16.50;;
8297;SDS011;4187;42.778;23.242;2023-12-22T00:48:18;26.80;;;16.97;;
8297;SDS011;4187;42.778;23.242;2023-12-22T00:50:44;27.53;;;18.97;;
8297;SDS011;4187;42.778;23.242;2023-12-22T00:53:11;37.77;;;22.83;;
8297;SDS011;4187;42.778;23.242;2023-12-22T00:55:37;35.57;;;21.80;;
8297;SDS011;4187;42.778;23.242;2023-12-22T00:58:04;37.87;;;22.40;;
8297;SDS011;4187;42.778;23.242;2023-12-22T01:00:31;29.27;;;20.00;;
8297;SDS011;4187;42.778;23.242;2023-12-22T01:02:59;31.53;;;20.47;;
8297;SDS011;4187;42.778;23.242;2023-12-22T01:05:25;35.90;;;22.07;;
8297;SDS011;4187;42.778;23.242;2023-12-22T01:07:52;35.07;;;21.27;;
8297;SDS011;4187;42.778;23.242;2023-12-22T01:10:18;36.80;;;24.43;;
8297;SDS011;4187;42.778;23.242;2023-12-22T01:12:46;44.03;;;28.03;;
8297;SDS011;4187;42.778;23.242;2023-12-22T01:15:12;37.67;;;24.23;;
8297;SDS011;4187;42.778;23.242;2023-12-22T01:17:39;43.27;;;25.90;;
8297;SDS011;4187;42.778;23.242;2023-12-22T01:20:07;37.67;;;26.43;;
8297;SDS011;4187;42.778;23.242;2023-12-22T01:22:33;39.67;;;28.27;;
8297;SDS011;4187;42.778;23.242;2023-12-22T01:25:03;41.50;;;26.87;;
8297;SDS011;4187;42.778;23.242;2023-12-22T01:27:30;35.43;;;23.47;;
8297;SDS011;4187;42.778;23.242;2023-12-22T01:29:56;38.87;;;25.90;;
8297;SDS011;4187;42.778;23.242;2023-12-22T01:32:23;31.67;;;23.80;;
8297;SDS011;4187;42.778;23.242;2023-12-22T01:34:49;36.33;;;24.07;;
8297;SDS011;4187;42.778;23.242;2023-12-22T01:37:17;32.90;;;24.20;;
8297;SDS011;4187;42.778;23.242;2023-12-22T01:39:44;32.73;;;24.07;;
8297;SDS011;4187;42.778;23.242;2023-12-22T01:42:10;37.23;;;23.23;;
8297;SDS011;4187;42.778;23.242;2023-12-22T01:44:37;29.70;;;21.23;;
8297;SDS011;4187;42.778;23.242;2023-12-22T01:47:03;38.60;;;24.97;;
8297;SDS011;4187;42.778;23.242;2023-12-22T01:49:30;51.47;;;31.40;;
8297;SDS011;4187;42.778;23.242;2023-12-22T01:51:57;52.53;;;31.77;;
8297;SDS011;4187;42.778;23.242;2023-12-22T01:54:25;89.60;;;43.77;;
8297;SDS011;4187;42.778;23.242;2023-12-22T01:56:51;61.73;;;33.37;;
8297;SDS011;4187;42.778;23.242;2023-12-22T01:59:18;40.47;;;25.87;;
8297;SDS011;4187;42.778;23.242;2023-12-22T02:01:44;39.23;;;25.50;;
8297;SDS011;4187;42.778;23.242;2023-12-22T02:04:11;35.07;;;23.93;;
8297;SDS011;4187;42.778;23.242;2023-12-22T02:06:38;35.43;;;25.53;;
8297;SDS011;4187;42.778;23.242;2023-12-22T02:09:05;38.10;;;25.00;;
8297;SDS011;4187;42.778;23.242;2023-12-22T02:11:33;31.43;;;22.80;;
8297;SDS011;4187;42.778;23.242;2023-12-22T02:13:59;32.37;;;22.37;;
8297;SDS011;4187;42.778;23.242;2023-12-22T02:16:27;34.47;;;23.67;;
8297;SDS011;4187;42.778;23.242;2023-12-22T02:18:57;41.17;;;26.60;;
8297;SDS011;4187;42.778;23.242;2023-12-22T02:21:25;52.13;;;30.33;;
8297;SDS011;4187;42.778;23.242;2023-12-22T02:23:53;38.10;;;24.27;;
8297;SDS011;4187;42.778;23.242;2023-12-22T02:26:21;34.63;;;22.80;;
8297;SDS011;4187;42.778;23.242;2023-12-22T02:28:50;28.87;;;20.33;;
8297;SDS011;4187;42.778;23.242;2023-12-22T02:31:17;36.47;;;25.50;;
8297;SDS011;4187;42.778;23.242;2023-12-22T02:33:44;34.50;;;23.73;;
8297;SDS011;4187;42.778;23.242;2023-12-22T02:36:12;38.57;;;26.03;;
8297;SDS011;4187;42.778;23.242;2023-12-22T02:38:39;36.13;;;23.87;;
8297;SDS011;4187;42.778;23.242;2023-12-22T02:41:07;38.30;;;26.30;;
8297;SDS011;4187;42.778;23.242;2023-12-22T02:43:34;39.53;;;26.43;;
8297;SDS011;4187;42.778;23.242;2023-12-22T02:46:00;29.30;;;19.40;;
8297;SDS011;4187;42.778;23.242;2023-12-22T02:48:26;30.17;;;19.20;;
8297;SDS011;4187;42.778;23.242;2023-12-22T02:50:52;29.13;;;18.70;;
8297;SDS011;4187;42.778;23.242;2023-12-22T02:53:19;26.17;;;18.47;;
8297;SDS011;4187;42.778;23.242;2023-12-22T02:55:45;29.63;;;19.80;;
8297;SDS011;4187;42.778;23.242;2023-12-22T02:58:13;45.33;;;27.97;;
8297;SDS011;4187;42.778;23.242;2023-12-22T03:00:40;35.27;;;21.67;;
8297;SDS011;4187;42.778;23.242;2023-12-22T03:03:06;26.33;;;18.23;;
8297;SDS011;4187;42.778;23.242;2023-12-22T03:05:33;24.10;;;16.73;;
8297;SDS011;4187;42.778;23.242;2023-12-22T03:07:59;26.17;;;19.93;;
8297;SDS011;4187;42.778;23.242;2023-12-22T03:10:26;40.60;;;27.53;;
8297;SDS011;4187;42.778;23.242;2023-12-22T03:12:52;35.87;;;24.23;;
8297;SDS011;4187;42.778;23.242;2023-12-22T03:15:20;33.53;;;21.20;;
8297;SDS011;4187;42.778;23.242;2023-12-22T03:17:47;32.80;;;21.00;;
8297;SDS011;4187;42.778;23.242;2023-12-22T03:20:12;30.27;;;20.97;;
8297;SDS011;4187;42.778;23.242;2023-12-22T03:22:39;23.87;;;17.13;;
8297;SDS011;4187;42.778;23.242;2023-12-22T03:25:05;21.73;;;15.27;;
8297;SDS011;4187;42.778;23.242;2023-12-22T03:27:32;21.03;;;16.17;;
8297;SDS011;4187;42.778;23.242;2023-12-22T03:29:59;24.03;;;17.07;;
8297;SDS011;4187;42.778;23.242;2023-12-22T03:32:28;25.90;;;18.70;;
8297;SDS011;4187;42.778;23.242;2023-12-22T03:34:54;25.93;;;16.60;;
8297;SDS011;4187;42.778;23.242;2023-12-22T03:37:21;24.40;;;17.37;;
8297;SDS011;4187;42.778;23.242;2023-12-22T03:39:47;21.30;;;15.97;;
8297;SDS011;4187;42.778;23.242;2023-12-22T03:42:14;22.23;;;16.47;;
8297;SDS011;4187;42.778;23.242;2023-12-22T03:44:40;28.20;;;19.80;;
8297;SDS011;4187;42.778;23.242;2023-12-22T03:47:07;27.73;;;19.67;;
8297;SDS011;4187;42.778;23.242;2023-12-22T03:49:35;22.17;;;16.13;;
8297;SDS011;4187;42.778;23.242;2023-12-22T03:52:01;23.83;;;16.83;;
8297;SDS011;4187;42.778;23.242;2023-12-22T03:54:28;23.90;;;16.20;;
8297;SDS011;4187;42.778;23.242;2023-12-22T03:56:54;24.30;;;16.80;;
8297;SDS011;4187;42.778;23.242;2023-12-22T03:59:21;27.60;;;18.40;;
8297;SDS011;4187;42.778;23.242;2023-12-22T04:01:50;37.00;;;22.03;;
8297;SDS011;4187;42.778;23.242;2023-12-22T04:04:17;29.23;;;20.90;;
8297;SDS011;4187;42.778;23.242;2023-12-22T04:06:45;42.30;;;23.57;;
8297;SDS011;4187;42.778;23.242;2023-12-22T04:09:11;33.27;;;20.83;;
8297;SDS011;4187;42.778;23.242;2023-12-22T04:11:38;32.77;;;21.57;;
8297;SDS011;4187;42.778;23.242;2023-12-22T04:14:05;33.93;;;19.90;;
8297;SDS011;4187;42.778;23.242;2023-12-22T04:16:31;32.20;;;20.80;;
8297;SDS011;4187;42.778;23.242;2023-12-22T04:18:58;30.63;;;21.23;;
8297;SDS011;4187;42.778;23.242;2023-12-22T04:21:24;32.30;;;22.83;;
8297;SDS011;4187;42.778;23.242;2023-12-22T04:23:52;34.37;;;22.37;;
8297;SDS011;4187;42.778;23.242;2023-12-22T04:26:19;35.67;;;22.23;;
8297;SDS011;4187;42.778;23.242;2023-12-22T04:28:45;38.33;;;22.87;;
8297;SDS011;4187;42.778;23.242;2023-12-22T04:31:12;33.53;;;22.33;;
8297;SDS011;4187;42.778;23.242;2023-12-22T04:33:38;31.67;;;21.27;;
8297;SDS011;4187;42.778;23.242;2023-12-22T04:36:05;30.90;;;21.43;;
8297;SDS011;4187;42.778;23.242;2023-12-22T04:38:32;39.90;;;24.27;;
8297;SDS011;4187;42.778;23.242;2023-12-22T04:41:00;30.57;;;21.47;;
8297;SDS011;4187;42.778;23.242;2023-12-22T04:43:27;29.07;;;18.80;;
8297;SDS011;4187;42.778;23.242;2023-12-22T04:45:53;36.53;;;23.33;;
8297;SDS011;4187;42.778;23.242;2023-12-22T04:48:20;43.80;;;24.63;;
8297;SDS011;4187;42.778;23.242;2023-12-22T04:50:46;32.77;;;21.67;;
8297;SDS011;4187;42.778;23.242;2023-12-22T04:53:13;27.70;;;20.27;;
8297;SDS011;4187;42.778;23.242;2023-12-22T04:55:39;29.27;;;20.37;;
8297;SDS011;4187;42.778;23.242;2023-12-22T04:58:07;29.67;;;20.33;;
8297;SDS011;4187;42.778;23.242;2023-12-22T05:00:35;27.07;;;19.10;;
8297;SDS011;4187;42.778;23.242;2023-12-22T05:03:01;32.43;;;20.67;;
8297;SDS011;4187;42.778;23.242;2023-12-22T05:05:28;27.37;;;18.10;;
8297;SDS011;4187;42.778;23.242;2023-12-22T05:07:55;26.97;;;18.73;;
8297;SDS011;4187;42.778;23.242;2023-12-22T05:10:22;29.83;;;21.57;;
8297;SDS011;4187;42.778;23.242;2023-12-22T05:12:48;29.80;;;20.70;;
8297;SDS011;4187;42.778;23.242;2023-12-22T05:15:16;27.27;;;18.13;;
8297;SDS011;4187;42.778;23.242;2023-12-22T05:17:43;34.17;;;22.10;;
8297;SDS011;4187;42.778;23.242;2023-12-22T05:20:09;52.87;;;27.70;;
8297;SDS011;4187;42.778;23.242;2023-12-22T05:22:36;28.53;;;19.03;;
8297;SDS011;4187;42.778;23.242;2023-12-22T05:25:03;24.57;;;16.53;;
8297;SDS011;4187;42.778;23.242;2023-12-22T05:27:30;26.53;;;19.77;;
8297;SDS011;4187;42.778;23.242;2023-12-22T05:29:57;26.57;;;17.27;;
8297;SDS011;4187;42.778;23.242;2023-12-22T05:32:27;18.47;;;12.57;;
8297;SDS011;4187;42.778;23.242;2023-12-22T05:34:54;15.90;;;12.57;;
8297;SDS011;4187;42.778;23.242;2023-12-22T05:37:20;13.10;;;10.73;;
8297;SDS011;4187;42.778;23.242;2023-12-22T05:39:47;12.43;;;8.93;;
8297;SDS011;4187;42.778;23.242;2023-12-22T05:42:13;10.23;;;5.93;;
8297;SDS011;4187;42.778;23.242;2023-12-22T05:44:40;7.70;;;6.30;;
8297;SDS011;4187;42.778;23.242;2023-12-22T05:47:07;10.37;;;5.83;;
8297;SDS011;4187;42.778;23.242;2023-12-22T05:49:35;7.60;;;5.67;;
8297;SDS011;4187;42.778;23.242;2023-12-22T05:52:01;9.00;;;6.20;;
8297;SDS011;4187;42.778;23.242;2023-12-22T05:54:28;15.27;;;6.90;;
8297;SDS011;4187;42.778;23.242;2023-12-22T05:56:54;11.10;;;6.47;;
8297;SDS011;4187;42.778;23.242;2023-12-22T05:59:21;10.77;;;6.70;;
8297;SDS011;4187;42.778;23.242;2023-12-22T06:01:47;21.23;;;10.50;;
8297;SDS011;4187;42.778;23.242;2023-12-22T06:04:14;12.63;;;6.67;;
8297;SDS011;4187;42.778;23.242;2023-12-22T06:06:44;6.90;;;5.97;;
8297;SDS011;4187;42.778;23.242;2023-12-22T06:09:11;8.47;;;6.00;;
8297;SDS011;4187;42.778;23.242;2023-12-22T06:11:38;9.00;;;6.30;;
8297;SDS011;4187;42.778;23.242;2023-12-22T06:14:04;7.17;;;6.20;;
8297;SDS011;4187;42.778;23.242;2023-12-22T06:16:31;7.43;;;6.63;;
8297;SDS011;4187;42.778;23.242;2023-12-22T06:18:57;10.37;;;6.47;;
8297;SDS011;4187;42.778;23.242;2023-12-22T06:21:24;9.70;;;6.87;;
8297;SDS011;4187;42.778;23.242;2023-12-22T06:23:52;13.57;;;7.83;;
8297;SDS011;4187;42.778;23.242;2023-12-22T06:26:18;34.47;;;16.77;;
8297;SDS011;4187;42.778;23.242;2023-12-22T06:28:45;35.87;;;17.20;;
8297;SDS011;4187;42.778;23.242;2023-12-22T06:31:16;40.63;;;19.63;;
8297;SDS011;4187;42.778;23.242;2023-12-22T06:33:43;47.20;;;21.63;;
8297;SDS011;4187;42.778;23.242;2023-12-22T06:36:17;34.00;;;18.07;;
8297;SDS011;4187;42.778;23.242;2023-12-22T06:38:43;30.67;;;16.17;;
8297;SDS011;4187;42.778;23.242;2023-12-22T06:41:18;25.40;;;13.37;;
8297;SDS011;4187;42.778;23.242;2023-12-22T06:43:45;25.03;;;12.67;;
8297;SDS011;4187;42.778;23.242;2023-12-22T06:46:14;14.30;;;9.23;;
8297;SDS011;4187;42.778;23.242;2023-12-22T06:48:41;19.37;;;9.90;;
8297;SDS011;4187;42.778;23.242;2023-12-22T06:51:07;15.80;;;9.67;;
8297;SDS011;4187;42.778;23.242;2023-12-22T06:53:34;23.87;;;12.13;;
8297;SDS011;4187;42.778;23.242;2023-12-22T06:56:00;21.33;;;12.30;;
8297;SDS011;4187;42.778;23.242;2023-12-22T06:58:28;20.37;;;10.97;;
8297;SDS011;4187;42.778;23.242;2023-12-22T07:00:54;19.10;;;9.60;;
8297;SDS011;4187;42.778;23.242;2023-12-22T07:03:21;15.23;;;9.23;;
8297;SDS011;4187;42.778;23.242;2023-12-22T07:05:47;26.93;;;14.27;;
8297;SDS011;4187;42.778;23.242;2023-12-22T07:08:14;29.90;;;14.67;;
8297;SDS011;4187;42.778;23.242;2023-12-22T07:10:40;36.97;;;17.63;;
8297;SDS011;4187;42.778;23.242;2023-12-22T07:13:07;43.17;;;20.60;;
8297;SDS011;4187;42.778;23.242;2023-12-22T07:15:35;42.57;;;19.53;;
8297;SDS011;4187;42.778;23.242;2023-12-22T07:18:01;42.83;;;19.37;;
8297;SDS011;4187;42.778;23.242;2023-12-22T07:20:28;35.17;;;16.83;;
8297;SDS011;4187;42.778;23.242;2023-12-22T07:22:55;22.10;;;13.53;;
8297;SDS011;4187;42.778;23.242;2023-12-22T07:25:21;17.90;;;10.87;;
8297;SDS011;4187;42.778;23.242;2023-12-22T07:27:49;12.37;;;8.23;;
8297;SDS011;4187;42.778;23.242;2023-12-22T07:30:16;11.80;;;7.80;;
8297;SDS011;4187;42.778;23.242;2023-12-22T07:32:45;11.50;;;8.57;;
8297;SDS011;4187;42.778;23.242;2023-12-22T07:35:14;18.73;;;11.07;;
8297;SDS011;4187;42.778;23.242;2023-12-22T07:37:41;13.63;;;8.90;;
8297;SDS011;4187;42.778;23.242;2023-12-22T07:40:07;23.33;;;11.70;;
8297;SDS011;4187;42.778;23.242;2023-12-22T07:42:34;14.63;;;10.53;;
8297;SDS011;4187;42.778;23.242;2023-12-22T07:45:01;18.67;;;10.07;;
8297;SDS011;4187;42.778;23.242;2023-12-22T07:47:29;19.43;;;9.87;;
8297;SDS011;4187;42.778;23.242;2023-12-22T07:49:57;20.20;;;10.73;;
8297;SDS011;4187;42.778;23.242;2023-12-22T07:52:23;15.50;;;10.13;;
8297;SDS011;4187;42.778;23.242;2023-12-22T07:54:50;15.93;;;10.20;;
8297;SDS011;4187;42.778;23.242;2023-12-22T07:57:18;16.10;;;9.60;;
8297;SDS011;4187;42.778;23.242;2023-12-22T07:59:47;11.63;;;7.90;;
8297;SDS011;4187;42.778;23.242;2023-12-22T08:02:13;9.60;;;6.63;;
8297;SDS011;4187;42.778;23.242;2023-12-22T08:04:40;11.43;;;7.37;;
8297;SDS011;4187;42.778;23.242;2023-12-22T08:07:08;12.77;;;8.90;;
8297;SDS011;4187;42.778;23.242;2023-12-22T08:09:34;12.30;;;8.20;;
8297;SDS011;4187;42.778;23.242;2023-12-22T08:12:01;9.87;;;7.27;;
8297;SDS011;4187;42.778;23.242;2023-12-22T08:14:27;11.10;;;7.47;;
8297;SDS011;4187;42.778;23.242;2023-12-22T08:16:54;13.60;;;8.53;;
8297;SDS011;4187;42.778;23.242;2023-12-22T08:19:20;12.60;;;9.40;;
8297;SDS011;4187;42.778;23.242;2023-12-22T08:21:47;10.40;;;7.70;;
8297;SDS011;4187;42.778;23.242;2023-12-22T08:24:15;10.03;;;7.70;;
8297;SDS011;4187;42.778;23.242;2023-12-22T08:26:42;9.13;;;7.07;;
8297;SDS011;4187;42.778;23.242;2023-12-22T08:29:09;12.63;;;8.20;;
8297;SDS011;4187;42.778;23.242;2023-12-22T08:31:35;11.07;;;7.10;;
8297;SDS011;4187;42.778;23.242;2023-12-22T08:34:02;9.57;;;7.20;;
8297;SDS011;4187;42.778;23.242;2023-12-22T08:36:28;9.23;;;8.00;;
8297;SDS011;4187;42.778;23.242;2023-12-22T08:38:55;11.97;;;8.43;;
8297;SDS011;4187;42.778;23.242;2023-12-22T08:41:22;11.67;;;8.13;;
8297;SDS011;4187;42.778;23.242;2023-12-22T08:43:49;10.07;;;8.40;;
8297;SDS011;4187;42.778;23.242;2023-12-22T08:46:16;11.47;;;8.03;;
8297;SDS011;4187;42.778;23.242;2023-12-22T08:48:43;11.10;;;7.37;;
8297;SDS011;4187;42.778;23.242;2023-12-22T08:51:09;11.20;;;7.67;;
8297;SDS011;4187;42.778;23.242;2023-12-22T08:53:36;9.87;;;7.80;;
8297;SDS011;4187;42.778;23.242;2023-12-22T08:56:03;10.53;;;7.90;;
8297;SDS011;4187;42.778;23.242;2023-12-22T08:58:32;9.60;;;8.00;;
8297;SDS011;4187;42.778;23.242;2023-12-22T09:00:58;10.17;;;7.87;;
8297;SDS011;4187;42.778;23.242;2023-12-22T09:03:25;12.20;;;7.67;;
8297;SDS011;4187;42.778;23.242;2023-12-22T09:05:52;10.23;;;8.23;;
8297;SDS011;4187;42.778;23.242;2023-12-22T09:08:18;11.87;;;8.47;;
8297;SDS011;4187;42.778;23.242;2023-12-22T09:10:45;8.37;;;6.87;;
8297;SDS011;4187;42.778;23.242;2023-12-22T09:13:11;13.10;;;7.80;;
8297;SDS011;4187;42.778;23.242;2023-12-22T09:15:39;11.87;;;8.53;;
8297;SDS011;4187;42.778;23.242;2023-12-22T09:18:06;12.23;;;8.70;;
8297;SDS011;4187;42.778;23.242;2023-12-22T09:20:33;12.87;;;9.17;;
8297;SDS011;4187;42.778;23.242;2023-12-22T09:22:59;16.17;;;10.47;;
8297;SDS011;4187;42.778;23.242;2023-12-22T09:25:26;10.00;;;8.53;;
8297;SDS011;4187;42.778;23.242;2023-12-22T09:27:52;8.43;;;7.40;;
8297;SDS011;4187;42.778;23.242;2023-12-22T09:30:19;8.93;;;7.83;;
8297;SDS011;4187;42.778;23.242;2023-12-22T09:32:48;12.93;;;9.10;;
8297;SDS011;4187;42.778;23.242;2023-12-22T09:35:14;7.93;;;6.50;;
8297;SDS011;4187;42.778;23.242;2023-12-22T09:37:41;8.07;;;6.23;;
8297;SDS011;4187;42.778;23.242;2023-12-22T09:40:08;8.83;;;6.33;;
8297;SDS011;4187;42.778;23.242;2023-12-22T09:42:35;8.93;;;6.37;;
8297;SDS011;4187;42.778;23.242;2023-12-22T09:45:03;8.40;;;5.80;;
8297;SDS011;4187;42.778;23.242;2023-12-22T09:47:33;19.83;;;13.27;;
8297;SDS011;4187;42.778;23.242;2023-12-22T09:50:02;19.33;;;11.57;;
8297;SDS011;4187;42.778;23.242;2023-12-22T09:52:28;12.20;;;8.70;;
8297;SDS011;4187;42.778;23.242;2023-12-22T09:54:56;16.07;;;11.00;;
8297;SDS011;4187;42.778;23.242;2023-12-22T09:57:23;10.73;;;8.57;;
8297;SDS011;4187;42.778;23.242;2023-12-22T09:59:53;8.67;;;5.90;;
8297;SDS011;4187;42.778;23.242;2023-12-22T10:02:20;8.13;;;6.27;;
8297;SDS011;4187;42.778;23.242;2023-12-22T10:04:46;8.80;;;6.97;;
8297;SDS011;4187;42.778;23.242;2023-12-22T10:07:14;11.17;;;5.93;;
8297;SDS011;4187;42.778;23.242;2023-12-22T10:09:42;9.83;;;6.00;;
8297;SDS011;4187;42.778;23.242;2023-12-22T10:12:11;10.80;;;6.57;;
8297;SDS011;4187;42.778;23.242;2023-12-22T10:14:37;9.70;;;5.93;;
8297;SDS011;4187;42.778;23.242;2023-12-22T10:17:04;7.83;;;5.80;;
8297;SDS011;4187;42.778;23.242;2023-12-22T10:19:30;9.27;;;6.43;;
8297;SDS011;4187;42.778;23.242;2023-12-22T10:21:57;5.63;;;5.10;;
8297;SDS011;4187;42.778;23.242;2023-12-22T10:24:41;4.90;;;4.40;;
8297;SDS011;4187;42.778;23.242;2023-12-22T10:27:08;6.63;;;5.27;;
8297;SDS011;4187;42.778;23.242;2023-12-22T10:29:35;4.73;;;4.23;;
8297;SDS011;4187;42.778;23.242;2023-12-22T10:32:02;5.40;;;3.57;;
8297;SDS011;4187;42.778;23.242;2023-12-22T10:34:29;3.20;;;2.63;;
8297;SDS011;4187;42.778;23.242;2023-12-22T10:36:55;3.13;;;2.30;;
8297;SDS011;4187;42.778;23.242;2023-12-22T10:39:22;3.83;;;3.27;;
8297;SDS011;4187;42.778;23.242;2023-12-22T10:41:50;3.97;;;3.67;;
8297;SDS011;4187;42.778;23.242;2023-12-22T10:44:17;3.33;;;2.83;;
8297;SDS011;4187;42.778;23.242;2023-12-22T10:46:44;3.93;;;2.40;;
8297;SDS011;4187;42.778;23.242;2023-12-22T10:49:13;3.43;;;2.00;;
8297;SDS011;4187;42.778;23.242;2023-12-22T10:51:40;5.70;;;3.10;;
8297;SDS011;4187;42.778;23.242;2023-12-22T10:54:07;3.03;;;2.50;;
8297;SDS011;4187;42.778;23.242;2023-12-22T10:56:34;3.10;;;2.27;;
8297;SDS011;4187;42.778;23.242;2023-12-22T10:59:02;2.30;;;2.10;;
8297;SDS011;4187;42.778;23.242;2023-12-22T11:01:30;2.53;;;1.90;;
8297;SDS011;4187;42.778;23.242;2023-12-22T11:04:01;2.07;;;1.87;;
8297;SDS011;4187;42.778;23.242;2023-12-22T11:06:28;2.40;;;2.13;;
8297;SDS011;4187;42.778;23.242;2023-12-22T11:08:56;3.17;;;2.07;;
8297;SDS011;4187;42.778;23.242;2023-12-22T11:11:25;2.33;;;2.13;;
8297;SDS011;4187;42.778;23.242;2023-12-22T11:13:54;3.20;;;2.60;;
8297;SDS011;4187;42.778;23.242;2023-12-22T11:16:23;3.13;;;2.53;;
8297;SDS011;4187;42.778;23.242;2023-12-22T11:18:50;5.07;;;3.90;;
8297;SDS011;4187;42.778;23.242;2023-12-22T11:21:19;4.68;;;3.83;;
8297;SDS011;4187;42.778;23.242;2023-12-22T11:23:47;4.13;;;3.60;;
8297;SDS011;4187;42.778;23.242;2023-12-22T11:26:14;3.50;;;3.20;;
8297;SDS011;4187;42.778;23.242;2023-12-22T11:28:42;3.63;;;3.03;;
8297;SDS011;4187;42.778;23.242;2023-12-22T11:31:11;4.25;;;3.38;;
8297;SDS011;4187;42.778;23.242;2023-12-22T11:33:43;3.90;;;3.17;;
8297;SDS011;4187;42.778;23.242;2023-12-22T11:36:10;5.20;;;2.63;;
8297;SDS011;4187;42.778;23.242;2023-12-22T11:38:37;2.97;;;2.42;;
8297;SDS011;4187;42.778;23.242;2023-12-22T11:41:04;2.95;;;2.65;;
8297;SDS011;4187;42.778;23.242;2023-12-22T11:43:30;3.25;;;2.60;;
8297;SDS011;4187;42.778;23.242;2023-12-22T11:46:00;3.50;;;2.95;;
8297;SDS011;4187;42.778;23.242;2023-12-22T11:48:27;4.82;;;4.07;;
8297;SDS011;4187;42.778;23.242;2023-12-22T11:50:56;5.37;;;4.00;;
8297;SDS011;4187;42.778;23.242;2023-12-22T11:53:23;3.50;;;2.77;;
8297;SDS011;4187;42.778;23.242;2023-12-22T11:55:56;3.13;;;2.60;;
8297;SDS011;4187;42.778;23.242;2023-12-22T11:58:35;4.55;;;3.03;;
8297;SDS011;4187;42.778;23.242;2023-12-22T12:01:02;5.77;;;2.90;;
8297;SDS011;4187;42.778;23.242;2023-12-22T12:03:35;2.80;;;2.50;;
8297;SDS011;4187;42.778;23.242;2023-12-22T12:06:15;4.80;;;3.10;;
8297;SDS011;4187;42.778;23.242;2023-12-22T12:08:42;3.77;;;3.30;;
8297;SDS011;4187;42.778;23.242;2023-12-22T12:11:09;4.20;;;3.73;;
8297;SDS011;4187;42.778;23.242;2023-12-22T12:13:43;5.67;;;3.30;;
8297;SDS011;4187;42.778;23.242;2023-12-22T12:16:10;3.57;;;3.23;;
8297;SDS011;4187;42.778;23.242;2023-12-22T12:18:38;3.63;;;3.23;;
8297;SDS011;4187;42.778;23.242;2023-12-22T12:21:05;4.30;;;3.77;;
8297;SDS011;4187;42.778;23.242;2023-12-22T12:23:34;5.17;;;4.50;;
8297;SDS011;4187;42.778;23.242;2023-12-22T12:26:00;3.90;;;3.47;;
8297;SDS011;4187;42.778;23.242;2023-12-22T12:28:28;4.90;;;4.10;;
8297;SDS011;4187;42.778;23.242;2023-12-22T12:30:58;8.73;;;5.37;;
8297;SDS011;4187;42.778;23.242;2023-12-22T12:33:25;6.40;;;4.20;;
8297;SDS011;4187;42.778;23.242;2023-12-22T12:35:52;3.13;;;2.67;;
8297;SDS011;4187;42.778;23.242;2023-12-22T12:38:19;3.17;;;2.60;;
8297;SDS011;4187;42.778;23.242;2023-12-22T12:40:49;3.40;;;2.53;;
8297;SDS011;4187;42.778;23.242;2023-12-22T12:43:16;4.43;;;2.90;;
8297;SDS011;4187;42.778;23.242;2023-12-22T12:45:43;3.93;;;3.10;;
8297;SDS011;4187;42.778;23.242;2023-12-22T12:48:10;4.27;;;3.40;;
8297;SDS011;4187;42.778;23.242;2023-12-22T12:50:36;5.70;;;3.80;;
8297;SDS011;4187;42.778;23.242;2023-12-22T12:53:04;6.30;;;3.90;;
8297;SDS011;4187;42.778;23.242;2023-12-22T12:55:32;9.77;;;5.30;;
8297;SDS011;4187;42.778;23.242;2023-12-22T12:58:00;5.63;;;4.97;;
8297;SDS011;4187;42.778;23.242;2023-12-22T13:00:26;6.07;;;4.93;;
8297;SDS011;4187;42.778;23.242;2023-12-22T13:02:53;8.67;;;5.00;;
8297;SDS011;4187;42.778;23.242;2023-12-22T13:05:21;8.03;;;5.43;;
8297;SDS011;4187;42.778;23.242;2023-12-22T13:07:48;7.90;;;6.43;;
8297;SDS011;4187;42.778;23.242;2023-12-22T13:10:21;8.07;;;5.40;;
8297;SDS011;4187;42.778;23.242;2023-12-22T13:12:48;4.67;;;4.07;;
8297;SDS011;4187;42.778;23.242;2023-12-22T13:15:16;5.87;;;4.03;;
8297;SDS011;4187;42.778;23.242;2023-12-22T13:17:43;6.10;;;3.83;;
8297;SDS011;4187;42.778;23.242;2023-12-22T13:20:10;4.17;;;3.17;;
8297;SDS011;4187;42.778;23.242;2023-12-22T13:22:37;4.43;;;2.80;;
8297;SDS011;4187;42.778;23.242;2023-12-22T13:25:04;5.40;;;4.37;;
8297;SDS011;4187;42.778;23.242;2023-12-22T13:27:30;27.07;;;15.37;;
8297;SDS011;4187;42.778;23.242;2023-12-22T13:29:57;80.00;;;40.23;;
8297;SDS011;4187;42.778;23.242;2023-12-22T13:32:25;13.70;;;8.80;;
8297;SDS011;4187;42.778;23.242;2023-12-22T13:34:53;5.00;;;4.17;;
8297;SDS011;4187;42.778;23.242;2023-12-22T13:37:20;5.40;;;3.80;;
8297;SDS011;4187;42.778;23.242;2023-12-22T13:39:47;4.10;;;3.33;;
8297;SDS011;4187;42.778;23.242;2023-12-22T13:42:14;6.33;;;3.70;;
8297;SDS011;4187;42.778;23.242;2023-12-22T13:44:42;4.17;;;3.57;;
8297;SDS011;4187;42.778;23.242;2023-12-22T13:47:08;4.87;;;3.73;;
8297;SDS011;4187;42.778;23.242;2023-12-22T13:49:37;4.40;;;3.97;;
8297;SDS011;4187;42.778;23.242;2023-12-22T13:52:03;6.07;;;3.90;;
8297;SDS011;4187;42.778;23.242;2023-12-22T13:54:32;4.43;;;3.73;;
8297;SDS011;4187;42.778;23.242;2023-12-22T13:56:59;8.83;;;4.50;;
8297;SDS011;4187;42.778;23.242;2023-12-22T13:59:32;8.00;;;5.20;;
8297;SDS011;4187;42.778;23.242;2023-12-22T14:01:59;5.57;;;4.97;;
8297;SDS011;4187;42.778;23.242;2023-12-22T14:04:26;6.28;;;5.47;;
8297;SDS011;4187;42.778;23.242;2023-12-22T14:06:54;7.70;;;5.27;;
8297;SDS011;4187;42.778;23.242;2023-12-22T14:09:20;5.80;;;4.63;;
8297;SDS011;4187;42.778;23.242;2023-12-22T14:11:49;8.20;;;5.67;;
8297;SDS011;4187;42.778;23.242;2023-12-22T14:14:16;8.90;;;5.68;;
8297;SDS011;4187;42.778;23.242;2023-12-22T14:16:44;10.75;;;7.72;;
8297;SDS011;4187;42.778;23.242;2023-12-22T14:19:10;12.70;;;9.10;;
8297;SDS011;4187;42.778;23.242;2023-12-22T14:21:37;12.63;;;8.90;;
8297;SDS011;4187;42.778;23.242;2023-12-22T14:24:05;19.30;;;12.23;;
8297;SDS011;4187;42.778;23.242;2023-12-22T14:26:31;18.73;;;12.23;;
8297;SDS011;4187;42.778;23.242;2023-12-22T14:28:58;13.57;;;9.07;;
8297;SDS011;4187;42.778;23.242;2023-12-22T14:31:24;5.57;;;4.20;;
8297;SDS011;4187;42.778;23.242;2023-12-22T14:33:51;4.67;;;3.53;;
8297;SDS011;4187;42.778;23.242;2023-12-22T14:36:17;2.77;;;2.40;;
8297;SDS011;4187;42.778;23.242;2023-12-22T14:38:44;3.10;;;2.53;;
8297;SDS011;4187;42.778;23.242;2023-12-22T14:41:12;2.90;;;2.50;;
8297;SDS011;4187;42.778;23.242;2023-12-22T14:43:38;4.67;;;3.73;;
8297;SDS011;4187;42.778;23.242;2023-12-22T14:46:05;5.60;;;3.30;;